createdAt,value
2022-10-25T00:01:25.017Z,99003.71
2022-10-25T00:06:32.273Z,99009.59
2022-10-25T00:11:39.469Z,99008.19
2022-10-25T00:16:47.079Z,99007.55
2022-10-25T00:21:54.399Z,99007.01
2022-10-25T00:27:02.200Z,99010.86
2022-10-25T00:32:09.219Z,99009.71
2022-10-25T00:37:16.188Z,98996.07
2022-10-25T00:42:25.613Z,98993.29
2022-10-25T00:47:44.835Z,98984.36
2022-10-25T00:52:57.468Z,98995.17
2022-10-25T00:58:08.927Z,99004.92
2022-10-25T01:03:17.817Z,99011.49
2022-10-25T01:08:25.794Z,99014.96
2022-10-25T01:13:32.733Z,99010.06
2022-10-25T01:18:46.427Z,99007.59
2022-10-25T01:24:14.502Z,98995.77
2022-10-25T01:29:45.219Z,98999.11
2022-10-25T01:35:00.323Z,99000.36
2022-10-25T01:40:17.080Z,99010.42
2022-10-25T01:45:25.370Z,99011.29
2022-10-25T01:50:36.168Z,99012.45
2022-10-25T01:55:50.130Z,99010.64
2022-10-25T02:01:07.423Z,99011.85
2022-10-25T02:06:23.916Z,99008.95
2022-10-25T02:11:33.230Z,99002.10
2022-10-25T02:16:46.557Z,99008.91
2022-10-25T02:21:56.134Z,99016.98
2022-10-25T02:27:06.212Z,99025.77
2022-10-25T02:32:13.239Z,99026.70
2022-10-25T02:37:20.538Z,99028.06
2022-10-25T02:42:27.759Z,99032.73
2022-10-25T02:47:34.604Z,99028.15
2022-10-25T02:52:41.468Z,99021.55
2022-10-25T02:57:48.410Z,99019.20
2022-10-25T03:02:55.616Z,99020.18
2022-10-25T03:08:02.616Z,99018.98
2022-10-25T03:13:09.800Z,99008.64
2022-10-25T03:18:17.997Z,99001.16
2022-10-25T03:23:25.139Z,99004.95
2022-10-25T03:28:33.090Z,99010.08
2022-10-25T03:33:40.087Z,99016.84
2022-10-25T03:38:47.047Z,99020.89
2022-10-25T03:43:54.033Z,99024.53
2022-10-25T03:49:00.874Z,99021.79
2022-10-25T03:54:07.881Z,99030.99
2022-10-25T03:59:15.159Z,99036.98
2022-10-25T04:04:22.736Z,99038.39
2022-10-25T04:09:29.908Z,99041.77
2022-10-25T04:14:37.066Z,99044.75
2022-10-25T04:19:44.045Z,99038.42
2022-10-25T04:24:51.073Z,99038.70
2022-10-25T04:29:58.335Z,99040.06
2022-10-25T04:35:06.214Z,99043.08
2022-10-25T04:40:14.597Z,99040.46
2022-10-25T04:45:21.630Z,99040.50
2022-10-25T04:50:28.446Z,99041.96
2022-10-25T04:55:36.189Z,99046.34
2022-10-25T05:00:43.303Z,99042.52
2022-10-25T05:05:50.416Z,99051.21
2022-10-25T05:10:58.008Z,99052.77
2022-10-25T05:16:05.891Z,99046.50
2022-10-25T05:21:13.702Z,99047.65
2022-10-25T05:26:22.847Z,99045.96
2022-10-25T05:31:31.928Z,99043.48
2022-10-25T05:36:38.998Z,99041.06
2022-10-25T05:41:45.891Z,99047.91
2022-10-25T05:46:53.099Z,99046.39
2022-10-25T05:52:00.114Z,99050.39
2022-10-25T05:57:07.080Z,99053.27
2022-10-25T06:02:14.075Z,99063.88
2022-10-25T06:07:22.235Z,99077.00
2022-10-25T06:12:29.598Z,99090.66
2022-10-25T06:17:36.775Z,99094.23
2022-10-25T06:22:44.335Z,99096.97
2022-10-25T06:27:51.716Z,99101.99
2022-10-25T06:33:00.455Z,99108.14
2022-10-25T06:38:07.760Z,99113.30
2022-10-25T06:43:14.950Z,99111.87
2022-10-25T06:48:22.883Z,99121.96
2022-10-25T06:53:33.029Z,99123.38
2022-10-25T06:58:40.581Z,99135.16
2022-10-25T07:03:47.645Z,99138.61
2022-10-25T07:08:58.991Z,99141.02
2022-10-25T07:14:06.084Z,99141.67
2022-10-25T07:19:13.257Z,99151.42
2022-10-25T07:24:21.107Z,99163.01
2022-10-25T07:29:28.098Z,99171.45
2022-10-25T07:34:34.977Z,99174.50
2022-10-25T07:39:41.977Z,99174.06
2022-10-25T07:44:48.771Z,99168.91
2022-10-25T07:49:57.764Z,99158.58
2022-10-25T07:55:04.735Z,99139.55
2022-10-25T08:00:13.386Z,99125.05
2022-10-25T08:05:20.452Z,99119.77
2022-10-25T08:10:28.153Z,99116.39
2022-10-25T08:21:20.629Z,99108.23
2022-10-25T08:26:48.020Z,99113.23
2022-10-25T08:31:55.029Z,99111.86
2022-10-25T08:37:03.549Z,99113.73
2022-10-25T08:42:17.163Z,99112.98
2022-10-25T08:57:19.745Z,99140.65
2022-10-25T09:02:35.609Z,99151.02
2022-10-25T09:07:55.049Z,99162.55
2022-10-25T09:13:11.153Z,99168.14
2022-10-25T09:18:20.627Z,99166.60
2022-10-25T09:23:31.859Z,99169.38
2022-10-25T09:28:51.598Z,99163.98
2022-10-25T09:34:04.482Z,99177.37
2022-10-25T09:39:18.392Z,99182.86
2022-10-25T09:44:37.460Z,99183.63
2022-10-25T09:49:54.589Z,99185.20
2022-10-25T09:55:16.051Z,99183.91
2022-10-25T10:00:23.587Z,99183.46
2022-10-25T10:05:32.166Z,99187.26
2022-10-25T10:10:40.129Z,99181.74
2022-10-25T10:21:25.360Z,99177.34
2022-10-25T10:26:35.559Z,99182.70
2022-10-25T10:31:44.778Z,99187.38
2022-10-25T10:37:04.677Z,99181.59
2022-10-25T10:45:27.538Z,99174.41
2022-10-25T10:50:35.400Z,99170.27
2022-10-25T10:55:51.137Z,99169.45
2022-10-25T11:01:00.419Z,99170.89
2022-10-25T11:06:09.456Z,99178.60
2022-10-25T11:11:19.840Z,99177.39
2022-10-25T11:16:41.585Z,99176.02
2022-10-25T11:22:00.800Z,99172.27
2022-10-25T11:27:20.350Z,99182.45
2022-10-25T11:32:47.607Z,99183.83
2022-10-25T11:38:04.296Z,99188.02
2022-10-25T11:43:30.321Z,99192.16
2022-10-25T11:48:52.648Z,99191.09
2022-10-25T11:54:10.409Z,99183.10
2022-10-25T11:59:25.467Z,99180.63
2022-10-25T12:05:09.489Z,99183.65
2022-10-25T12:10:25.438Z,99171.20
2022-10-25T12:15:40.288Z,99171.84
2022-10-25T12:20:50.125Z,99166.73
2022-10-25T12:26:03.319Z,99169.54
2022-10-25T12:31:17.171Z,99171.78
2022-10-25T12:36:32.688Z,99167.34
2022-10-25T12:41:41.768Z,99168.27
2022-10-25T12:47:05.567Z,99167.37
2022-10-25T12:52:30.773Z,99168.20
2022-10-25T12:57:48.527Z,99171.64
2022-10-25T13:03:45.436Z,99170.80
2022-10-25T13:08:53.981Z,99170.59
2022-10-25T13:14:02.010Z,99171.52
2022-10-25T13:24:58.385Z,99162.89
2022-10-25T13:30:20.387Z,99159.14
2022-10-25T13:36:06.819Z,99161.55
2022-10-25T13:41:21.961Z,99166.38
2022-10-25T13:46:33.989Z,99173.01
2022-10-25T13:51:43.595Z,99170.86
2022-10-25T13:56:55.038Z,99169.89
2022-10-25T14:02:17.118Z,99166.11
2022-10-25T14:07:45.573Z,99179.18
2022-10-25T14:12:56.641Z,99184.98
2022-10-25T14:18:15.015Z,99195.73
2022-10-25T14:23:26.051Z,99194.80
2022-10-25T14:28:35.857Z,99195.80
2022-10-25T14:33:50.227Z,99202.61
2022-10-25T14:38:59.833Z,99199.05
2022-10-25T14:44:25.553Z,99193.36
2022-10-25T14:49:32.943Z,99193.13
2022-10-25T14:54:42.060Z,99191.61
2022-10-25T14:59:51.068Z,99195.91
2022-10-25T15:05:00.529Z,99199.71
2022-10-25T15:10:29.213Z,99203.58
2022-10-25T15:21:18.972Z,99218.19
2022-10-25T15:26:29.274Z,99228.38
2022-10-25T15:31:36.139Z,99238.80
2022-10-25T15:36:45.616Z,99245.18
2022-10-25T15:41:52.653Z,99247.88
2022-10-25T15:46:59.665Z,99254.55
2022-10-25T15:52:07.072Z,99255.92
2022-10-25T15:57:14.097Z,99257.95
2022-10-25T16:02:26.381Z,99252.31
2022-10-25T16:07:33.297Z,99257.45
2022-10-25T16:12:40.899Z,99260.83
2022-10-25T16:17:48.958Z,99257.13
2022-10-25T16:22:56.981Z,99255.74
2022-10-25T16:28:04.422Z,99256.51
2022-10-25T16:33:11.362Z,99259.66
2022-10-25T16:38:18.240Z,99268.20
2022-10-25T16:43:25.506Z,99275.16
2022-10-25T16:48:32.748Z,99282.24
2022-10-25T16:53:40.523Z,99283.69
2022-10-25T16:58:48.079Z,99284.14
2022-10-25T17:03:55.922Z,99285.20
2022-10-25T17:09:02.920Z,99286.56
2022-10-25T17:14:10.917Z,99290.14
2022-10-25T17:19:17.849Z,99295.02
2022-10-25T17:24:25.457Z,99292.06
2022-10-25T17:29:32.480Z,99289.98
2022-10-25T17:34:39.533Z,99298.54
2022-10-25T17:39:46.686Z,99302.23
2022-10-25T17:44:53.875Z,99302.98
2022-10-25T17:50:01.813Z,99307.12
2022-10-25T17:55:11.950Z,99312.54
2022-10-25T18:00:19.902Z,99313.70
2022-10-25T18:05:27.775Z,99319.09
2022-10-25T18:10:36.973Z,99322.26
2022-10-25T18:15:45.769Z,99329.56
2022-10-25T18:31:04.731Z,99340.14
2022-10-25T18:36:15.454Z,99341.72
2022-10-25T18:41:24.808Z,99338.08
2022-10-25T18:46:32.847Z,99341.56
2022-10-25T18:51:40.799Z,99342.13
2022-10-25T18:56:47.707Z,99344.70
2022-10-25T19:01:54.957Z,99343.80
2022-10-25T19:07:02.260Z,99343.57
2022-10-25T19:12:09.975Z,99355.48
2022-10-25T19:17:17.515Z,99359.59
2022-10-25T19:22:24.959Z,99365.83
2022-10-25T19:27:31.920Z,99377.14
2022-10-25T19:32:38.984Z,99384.29
2022-10-25T19:37:46.865Z,99386.61
2022-10-25T19:42:54.343Z,99386.94
2022-10-25T19:48:01.747Z,99388.08
2022-10-25T19:53:08.881Z,99382.12
2022-10-25T19:58:15.979Z,99387.21
2022-10-25T20:03:23.089Z,99391.52
2022-10-25T20:08:32.961Z,99388.95
2022-10-25T20:13:40.419Z,99390.93
2022-10-25T20:18:47.567Z,99389.54
2022-10-25T20:23:58.851Z,99391.00
2022-10-25T20:29:07.694Z,99388.91
2022-10-25T20:34:14.870Z,99390.02
2022-10-25T20:39:21.744Z,99397.06
2022-10-25T20:44:28.674Z,99400.56
2022-10-25T20:49:35.544Z,99402.70
2022-10-25T20:54:42.613Z,99402.05
2022-10-25T20:59:49.613Z,99395.52
2022-10-25T21:04:56.825Z,99396.73
2022-10-25T21:10:03.841Z,99398.20
2022-10-25T21:15:12.531Z,99403.52
2022-10-25T21:20:19.887Z,99402.06
2022-10-25T21:25:27.191Z,99406.60
2022-10-25T21:30:35.130Z,99400.08
2022-10-25T21:35:42.084Z,99400.85
2022-10-25T21:40:49.509Z,99404.48
2022-10-25T21:45:59.064Z,99408.55
2022-10-25T21:51:06.599Z,99409.66
2022-10-25T21:56:15.890Z,99411.13
2022-10-25T22:01:24.961Z,99407.16
2022-10-25T22:06:31.951Z,99413.04
2022-10-25T22:11:38.359Z,99412.20
2022-10-25T22:16:45.213Z,99411.24
2022-10-25T22:21:51.742Z,99410.92
2022-10-25T22:26:58.580Z,99407.75
2022-10-25T22:32:04.128Z,99410.01
2022-10-25T22:37:11.434Z,99412.45
2022-10-25T22:42:18.267Z,99417.35
2022-10-25T22:47:23.816Z,99421.70
2022-10-25T22:52:31.541Z,99419.69
2022-10-25T22:57:38.752Z,99420.59
2022-10-25T23:02:45.993Z,99410.54
2022-10-25T23:07:54.380Z,99415.83
2022-10-25T23:13:01.248Z,99416.78
2022-10-25T23:18:08.574Z,99420.60
2022-10-25T23:23:15.870Z,99424.16
2022-10-25T23:28:22.938Z,99433.19
2022-10-25T23:33:30.336Z,99432.12
2022-10-25T23:38:37.565Z,99433.25
2022-10-25T23:43:44.805Z,99437.91
2022-10-25T23:48:51.834Z,99435.76
2022-10-25T23:53:58.998Z,99439.55
2022-10-25T23:59:06.796Z,99441.16
